createdAt,value
2022-11-06T00:02:47.708Z,9.34
2022-11-06T00:12:49.279Z,9.33
2022-11-06T00:22:50.713Z,9.17
2022-11-06T00:32:52.100Z,9.07
2022-11-06T00:42:54.847Z,9.00
2022-11-06T00:52:56.240Z,8.94
2022-11-06T01:02:57.705Z,8.87
2022-11-06T01:12:59.184Z,8.77
2022-11-06T01:23:00.511Z,8.78
2022-11-06T01:33:01.887Z,8.70
2022-11-06T01:43:04.137Z,8.63
2022-11-06T01:53:05.614Z,8.65
2022-11-06T02:03:07.625Z,8.65
2022-11-06T02:13:35.721Z,8.69
2022-11-06T02:23:52.997Z,8.62
2022-11-06T02:33:59.809Z,8.68
2022-11-06T02:44:05.922Z,8.62
2022-11-06T02:54:09.836Z,8.60
2022-11-06T03:04:18.619Z,8.64
2022-11-06T03:14:59.001Z,8.77
2022-11-06T03:25:00.288Z,8.79
2022-11-06T03:35:26.457Z,8.88
2022-11-06T03:45:31.087Z,8.90
2022-11-06T03:55:38.075Z,8.86
2022-11-06T04:05:48.547Z,8.98
2022-11-06T04:15:53.391Z,8.98
2022-11-06T04:26:22.187Z,8.98
2022-11-06T04:36:39.668Z,8.96
2022-11-06T04:46:48.332Z,8.98
2022-11-06T04:56:50.358Z,9.03
2022-11-06T05:06:51.806Z,9.06
2022-11-06T05:16:53.138Z,9.13
2022-11-06T05:26:59.391Z,9.06
2022-11-06T05:37:01.080Z,8.88
2022-11-06T05:47:02.462Z,8.89
2022-11-06T05:57:03.928Z,8.85
2022-11-06T06:07:05.288Z,8.80
2022-11-06T06:17:06.891Z,8.76
2022-11-06T06:27:08.490Z,8.69
2022-11-06T06:37:12.229Z,8.66
2022-11-06T06:47:18.106Z,8.65
2022-11-06T06:57:19.444Z,8.62
2022-11-06T07:07:20.966Z,8.63
2022-11-06T07:17:22.371Z,8.70
2022-11-06T07:27:23.828Z,8.83
2022-11-06T07:37:25.295Z,8.89
2022-11-06T07:47:27.694Z,8.94
2022-11-06T07:57:29.162Z,9.17
2022-11-06T08:07:30.502Z,9.27
2022-11-06T08:17:31.828Z,9.43
2022-11-06T08:27:33.246Z,9.43
2022-11-06T08:37:36.479Z,9.61
2022-11-06T08:47:37.793Z,9.81
2022-11-06T08:57:39.193Z,10.12
2022-11-06T09:07:40.618Z,10.35
2022-11-06T09:17:46.844Z,10.50
2022-11-06T09:27:55.695Z,10.57
2022-11-06T09:38:01.865Z,10.73
2022-11-06T09:48:09.161Z,10.92
2022-11-06T09:58:46.751Z,11.20
2022-11-06T10:08:50.585Z,11.42
2022-11-06T10:19:14.918Z,11.47
2022-11-06T10:30:01.083Z,11.56
2022-11-06T10:40:05.578Z,11.65
2022-11-06T10:50:13.071Z,11.62
2022-11-06T11:00:16.250Z,11.74
2022-11-06T11:10:23.592Z,11.80
2022-11-06T11:20:33.159Z,11.78
2022-11-06T11:30:34.611Z,11.80
2022-11-06T11:40:38.597Z,11.87
2022-11-06T11:50:40.064Z,11.95
2022-11-06T12:00:51.143Z,12.04
2022-11-06T12:10:52.683Z,12.06
2022-11-06T12:21:17.598Z,12.14
2022-11-06T12:31:36.856Z,12.20
2022-11-06T12:41:45.487Z,12.18
2022-11-06T12:51:49.543Z,12.13
2022-11-06T13:02:24.439Z,12.14
2022-11-06T13:12:37.562Z,12.06
2022-11-06T13:22:57.831Z,12.08
2022-11-06T13:33:20.546Z,12.10
2022-11-06T13:43:28.816Z,12.11
2022-11-06T13:54:00.416Z,12.07
2022-11-06T14:04:23.002Z,12.03
2022-11-06T14:14:27.431Z,11.99
2022-11-06T14:24:36.350Z,11.96
2022-11-06T14:34:42.397Z,11.93
2022-11-06T14:44:47.425Z,11.94
2022-11-06T14:55:06.789Z,11.89
2022-11-06T15:05:17.664Z,11.86
2022-11-06T15:15:20.722Z,11.83
2022-11-06T15:25:25.062Z,11.81
2022-11-06T15:35:31.108Z,11.76
2022-11-06T15:45:32.592Z,11.54
2022-11-06T15:55:38.419Z,11.26
2022-11-06T16:05:40.540Z,11.03
2022-11-06T16:15:42.498Z,10.89
2022-11-06T16:25:44.671Z,10.82
2022-11-06T16:35:50.085Z,10.61
2022-11-06T16:46:00.679Z,10.52
2022-11-06T16:56:05.965Z,10.28
2022-11-06T17:06:20.840Z,10.19
2022-11-06T17:16:24.685Z,10.05
2022-11-06T17:26:29.419Z,9.99
2022-11-06T17:36:31.793Z,9.95
2022-11-06T17:46:35.668Z,9.90
2022-11-06T17:56:38.215Z,9.80
2022-11-06T18:06:40.014Z,9.75
2022-11-06T18:16:43.879Z,9.79
2022-11-06T18:26:45.603Z,9.78
2022-11-06T18:36:50.524Z,9.80
2022-11-06T18:46:52.133Z,9.83
2022-11-06T18:56:53.476Z,9.84
2022-11-06T19:06:55.150Z,9.85
2022-11-06T19:16:56.547Z,9.90
2022-11-06T19:26:57.976Z,9.95
2022-11-06T19:36:59.396Z,9.98
2022-11-06T19:47:00.760Z,9.91
2022-11-06T19:57:29.172Z,9.95
2022-11-06T20:07:23.583Z,10.07
2022-11-06T20:17:25.507Z,10.11
2022-11-06T20:27:26.856Z,10.25
2022-11-06T20:37:28.763Z,10.28
2022-11-06T20:47:30.107Z,10.30
2022-11-06T20:57:31.460Z,10.40
2022-11-06T21:07:32.817Z,10.45
2022-11-06T21:17:35.103Z,10.53
2022-11-06T21:27:36.486Z,10.63
2022-11-06T21:37:37.839Z,10.63
2022-11-06T21:47:39.157Z,10.77
2022-11-06T21:57:40.537Z,10.82
2022-11-06T22:07:41.915Z,10.95
2022-11-06T22:17:43.262Z,11.00
2022-11-06T22:27:44.595Z,11.12
2022-11-06T22:37:47.021Z,11.16
2022-11-06T22:47:48.399Z,11.22
2022-11-06T22:57:49.723Z,11.21
2022-11-06T23:07:51.033Z,11.22
2022-11-06T23:17:52.847Z,11.26
2022-11-06T23:27:54.813Z,11.24
2022-11-06T23:37:56.239Z,11.25
2022-11-06T23:47:57.608Z,11.28
2022-11-06T23:57:59.488Z,11.29
